This demonstration page uses our WeatherBlox Daily Observations layout. Learn more.

39.29038, -76.61219

Hourly Observations for January 21, 2019

Temp ( °F °C ) Dew Point ( °F °C ) Humidity (%) Winds ( mph kmh ) Pressure ( in mb ) Visibility ( mi km ) Precip ( " mm )
12:54 am 00:54 undefined 16 -8.9 -5 -20.6 38 38 undefined N/A 30.03 1017 N/A 0 0
1:54 am 01:54 undefined 15 -9.4 -7 -21.7 36 36 undefined N/A 30.03 1017 N/A 0 0
2:54 am 02:54 undefined 14 -10 -8 -22.2 36 36 undefined N/A 30.06 1018 N/A 0 0
3:54 am 03:54 undefined 14 -10 -9 -22.8 35 35 undefined N/A 30.06 1018 N/A 0 0
4:54 am 04:54 undefined 13 -10.6 -8 -22.2 38 38 undefined N/A 30.12 1020 N/A 0 0
5:54 am 05:54 undefined 13 -10.6 -7 -21.7 40 40 undefined N/A 30.12 1020 N/A 0 0
6:54 am 06:54 undefined 13 -10.6 -6 -21.1 42 42 undefined N/A 30.15 1021 N/A 0 0
7:54 am 07:54 undefined 13 -10.6 -6 -21.1 42 42 undefined N/A 30.18 1022 N/A 0 0
8:54 am 08:54 undefined 14 -10 -7 -21.7 38 38 undefined N/A 30.24 1024 N/A 0 0
9:54 am 09:54 undefined 16 -8.9 -9 -22.8 32 32 undefined N/A 30.27 1025 N/A 0 0
10:54 am 10:54 undefined 17 -8.3 -9 -22.8 30 30 undefined N/A 30.3 1026 N/A 0 0
11:54 am 11:54 undefined 18 -7.8 -9 -22.8 29 29 undefined N/A 30.3 1026 N/A 0 0
12:54 pm 12:54 undefined 20 -6.7 -8 -22.2 28 28 undefined N/A 30.3 1026 N/A 0 0
1:54 pm 13:54 undefined 21 -6.1 -7 -21.7 28 28 undefined N/A 30.24 1024 N/A 0 0
2:54 pm 14:54 undefined 20 -6.7 -7 -21.7 29 29 undefined N/A 30.3 1026 N/A 0 0
3:54 pm 15:54 undefined 21 -6.1 -7 -21.7 28 28 undefined N/A 30.36 1028 N/A 0 0
4:54 pm 16:54 undefined 21 -6.1 -6 -21.1 30 30 undefined N/A 30.39 1029 N/A 0 0
5:54 pm 17:54 undefined 20 -6.7 -5 -20.6 32 32 undefined N/A 30.42 1030 N/A 0 0
6:54 pm 18:54 undefined 20 -6.7 -4 -20 34 34 undefined N/A 30.45 1031 N/A 0 0
7:54 pm 19:54 undefined 19 -7.2 -3 -19.4 37 37 undefined N/A 30.5 1033 N/A 0 0
8:54 pm 20:54 undefined 19 -7.2 -3 -19.4 37 37 undefined N/A 30.5 1033 N/A 0 0
9:54 pm 21:54 undefined 18 -7.8 -2 -18.9 41 41 undefined N/A 30.53 1034 N/A 0 0
10:54 pm 22:54 undefined 18 -7.8 -2 -18.9 41 41 undefined N/A 30.53 1034 N/A 0 0
11:54 pm 23:54 undefined 18 -7.8 -2 -18.9 41 41 undefined N/A 30.56 1035 N/A 0 0

Powered by AerisWeather